Denmark, Iowa
Current Conditions -  °F | °C
As of 3:35 AM on Friday 28 Nov 2014 (Local Time) from KFSW Reporting Station
Clear Clear  
Wind Chill:   Ceiling: Unl
Heat Index: 18°   Visibility: 10mi
Dew Point: 10°   Wind: 10mph
Humidity: 73%   Direction: 140°SE
Pressure: 30.26"   Gusts: NA
Location:  40.74°N, 91.34°W
Report Text: KFSW 280935Z AUTO 14009KT 10SM CLR M08/M12 A3026 RMK AO2
Loading
Personal Weather Stations






























Interactive Weather Map New forecast layout! Learn more

10-Day Weather Forecast

Advertisements
Track Severe Weather on mobile